This is the latest recevied weather packets stored in our database for station/object BMCB-27. If no packets are shown the sender has not sent any weather packets the latest 10 day(s).
| Time | Temp. | Humidity | Pressure | Rain* | Wind** | Luminosity | Snow |
|---|---|---|---|---|---|---|---|
| 1777952274 | 11.67° C | 99% | 1008.8 hPa | 0.76 mm | - | 0 W/m² | - |
| 1777939873 | 11.67° C | 99% | 1009.9 hPa | 0 mm | - | 0 W/m² | - |
| 1777933737 | 11.67° C | 96% | 1010.6 hPa | 0 mm | - | 0 W/m² | - |
| 1777931233 | 11.67° C | 96% | 1010.9 hPa | 0 mm | - | 0 W/m² | - |
| 1777927876 | 11.67° C | 95% | 1011.2 hPa | 0 mm | - | 0 W/m² | - |
| 1777925704 | 11.67° C | 96% | 1011.2 hPa | 0 mm | - | 0 W/m² | - |
| 1777906865 | 14.44° C | 90% | 1011.1 hPa | 0.51 mm | - | 158 W/m² | - |
| 1777905067 | 14.44° C | 91% | 1011.3 hPa | 0.25 mm | - | 240 W/m² | - |
| 1777903272 | 15.56° C | 88% | 1011.4 hPa | 0.25 mm | - | 234 W/m² | - |
| 1777902666 | 15.56° C | 88% | 1011.5 hPa | 0.25 mm | - | 206 W/m² | - |
| 1777900263 | 15.56° C | 86% | 1011.7 hPa | 0 mm | - | 190 W/m² | - |
| 1777898467 | 15° C | 86% | 1011.9 hPa | 0 mm | - | 126 W/m² | - |
| 1777897862 | 15° C | 86% | 1011.9 hPa | 0 mm | - | 194 W/m² | - |
| 1777892467 | 14.44° C | 88% | 1012.4 hPa | 0 mm | - | 230 W/m² | - |
| 1777884664 | 13.33° C | 91% | 1012.6 hPa | 0 mm | - | 218 W/m² | - |
| 1777882267 | 13.89° C | 91% | 1012.3 hPa | 0 mm | - | 244 W/m² | - |
| 1777866062 | 11.67° C | 93% | 1011 hPa | 0 mm | - | 0 W/m² | - |
| 1777863659 | 11.11° C | 95% | 1011.1 hPa | 0 mm | - | 0 W/m² | - |
| 1777859462 | 11.67° C | 94% | 1010.7 hPa | 0 mm | - | 0 W/m² | - |
| 1777852271 | 12.22° C | 92% | 1010.9 hPa | 0 mm | - | 0 W/m² | - |
| 1777849867 | 12.78° C | 93% | 1011 hPa | 0 mm | - | 0 W/m² | - |
| 1777839081 | 13.89° C | 92% | 1011 hPa | 0 mm | - | 0 W/m² | - |
| 1777837873 | 13.89° C | 91% | 1010.9 hPa | 0 mm | - | 0 W/m² | - |
| 1777818066 | 15° C | 89% | 1010.6 hPa | 0 mm | - | 374 W/m² | - |
| 1777811467 | 13.89° C | 95% | 1011.2 hPa | 0.76 mm | - | 200 W/m² | - |
* Rain latest hour (hover to see other rain measurements)
** Current wind speed in m/s (hover to see current wind gust speed)